• Join FlightAware (Why Join?)
  • Login
  • US Flag 
10:54PM EDT


 

Airport Tracker/Info


-or-


 

Live Flight TrackerFlight Track Log ✈ UCA4838 ✈ 17-Jun-2013 ✈ KROC - KEWR

Flight Track Log - Related Links

Times and Time Zones

All times are in EDT time to prevent confusion due to time zone crossing. See the UCA4838 flight status page for this flight to view local times or setup timezone preferences in your user account.

Time Position Orientation Groundspeed Altitude Reporting Facility
EDT Latitude Longitude Course Direction KTS MPH feet Rate Location/Type
06:12AM 43.1036 -77.6914 172° South 75 86 1,300  Level Cleveland Center
06:13AM 43.0783 -77.6867 172° South 148 170 1,800 960 Climbing Cleveland Center
06:14AM 43.0497 -77.6256 123° Southeast 202 232 2,900 1,080 Climbing Cleveland Center
06:15AM 43.0206 -77.5447 116° Southeast 205 236 4,300 1,140 Climbing Cleveland Center
06:16AM 42.9978 -77.4719 113° Southeast 210 242 5,500 1,200 Climbing Cleveland Center
06:17AM 42.9686 -77.3967 118° Southeast 216 249 6,800 1,260 Climbing Cleveland Center
06:18AM 42.9417 -77.3244 117° Southeast 216 249 8,100 1,320 Climbing Cleveland Center
06:19AM 42.9144 -77.2464 115° Southeast 216 249 9,500 1,260 Climbing Cleveland Center
06:20AM 42.8869 -77.1683 116° Southeast 216 249 10,700 1,020 Climbing Cleveland Center
06:22AM 42.8408 -77.0350 115° Southeast 221 254 12,300 780 Climbing New York Center
06:23AM 42.8075 -76.9556 120° Southeast 234 269 12,900 360 Climbing New York Center
06:23AM 42.7761 -76.8875 122° Southeast 243 280 12,900  Level Boston Center
06:24AM 42.7339 -76.7939 122° Southeast 271 312 12,900  Level Boston Center
06:25AM 42.6917 -76.6947 120° Southeast 292 336 12,900  Level Boston Center
06:26AM 42.6494 -76.6017 122° Southeast 292 336 12,900  Level Boston Center
06:27AM 42.6050 -76.5056 122° Southeast 292 336 12,900  Level Boston Center
06:28AM 42.5625 -76.4067 120° Southeast 292 336 12,900  Level Boston Center
06:29AM 42.5200 -76.3111 121° Southeast 297 342 12,900  Level Boston Center
06:30AM 42.4772 -76.2156 121° Southeast 297 342 12,900  Level Boston Center
06:31AM 42.4364 -76.1231 121° Southeast 297 342 12,900  Level Boston Center
06:32AM 42.3878 -76.0217 123° Southeast 306 352 12,900  Level Boston Center
06:33AM 42.3447 -75.9264 121° Southeast 304 350 12,900  Level Boston Center
06:34AM 42.3017 -75.8314 121° Southeast 309 356 12,900  Level Boston Center
06:35AM 42.2589 -75.7336 121° Southeast 304 350 12,900  Level Boston Center
06:36AM 42.2136 -75.6358 122° Southeast 304 350 12,900  Level Boston Center
06:37AM 42.1683 -75.5383 122° Southeast 309 356 12,900  Level Boston Center
06:38AM 42.1250 -75.4439 122° Southeast 309 356 12,900  Level Boston Center
06:39AM 42.0817 -75.3522 122° Southeast 309 356 12,900  Level Boston Center
06:40AM 42.0403 -75.2525 119° Southeast 309 356 12,900  Level Boston Center
06:41AM 42.0031 -75.1531 117° Southeast 304 350 13,000  Climbing Boston Center
06:42AM 41.9661 -75.0481 115° Southeast 304 350 13,000  Level Boston Center
06:43AM 41.9244 -74.9542 121° Southeast 299 344 13,000 -540 Level Boston Center
06:44AM 41.8528 -74.8983 150° Southeast 285 328 12,000 -1,200 Descending Boston Center
06:45AM 41.7808 -74.8456 151° Southeast 293 337 10,700 -1,440 Descending Boston Center
06:46AM 41.7089 -74.7956 153° Southeast 294 338 9,200 -1,440 Descending Boston Center
06:47AM 41.6369 -74.7456 153° Southeast 294 338 7,900 -1,140 Descending Boston Center
06:48AM 41.5692 -74.6989 153° Southeast 288 331 7,000 -840 Descending Boston Center
06:49AM 41.4992 -74.6547 155° Southeast 283 326 6,300 -540 Descending Boston Center
06:50AM 41.4333 -74.6000 148° Southeast 273 314 6,000 -180 Descending New York TRACON
06:51AM 41.3667 -74.5667 159° South 265 305 6,000 -300 Level New York TRACON
06:52AM 41.3167 -74.5000 135° Southeast 272 313 5,400 -540 Descending New York TRACON
06:53AM 41.2500 -74.4500 151° Southeast 268 308 5,000 -240 Descending New York TRACON
06:54AM 41.2000 -74.3833 135° Southeast 261 300 5,000  Level New York TRACON
06:55AM 41.1333 -74.3333 151° Southeast 258 297 5,000  Level New York TRACON
06:56AM 41.0833 -74.2833 143° Southeast 258 297 5,000  Level New York TRACON
06:57AM 41.0333 -74.2333 143° Southeast 258 297 5,000  Level New York TRACON
06:58AM 40.9667 -74.1667 143° Southeast 262 302 5,000 -480 Level New York TRACON
06:59AM 40.9167 -74.1167 143° Southeast 264 304 4,100 -1,140 Descending New York TRACON
07:00AM 40.8500 -74.0833 159° South 235 270 2,900 -960 Descending New York TRACON
07:01AM 40.8000 -74.0833 180° South 185 213 2,300 -840 Descending New York TRACON
07:02AM 40.7667 -74.1167 217° Southwest 170 196 1,400 -840 Descending New York TRACON
07:03AM 40.7333 -74.1500 217° Southwest 137 158 700 -720 Descending New York TRACON
07:05AM 40.6925 -74.1687 165° South  Level Estimated
07:12AM 40.6925 -74.1687 165° South  Level Estimated
07:13AM 40.6925 -74.1687 165° South  Level Estimated